Time;durP1;ratioP1;P1;durP2;ratioP2;P2;SDS_P1;SDS_P2;PMS_P1;PMS_P2;Temp;Humidity;BMP_temperature;BMP_pressure;BME280_temperature;BME280_humidity;BME280_pressure;Samples;Min_cycle;Max_cycle;Signal;HPM_P1;HPM_P2
2024/01/14 00:00:06;;;;;;;29.10;15.17;;;;;;;-0.67;81.21;100136.27;123561;1099;104245;-80
2024/01/14 00:02:39;;;;;;;30.50;14.43;;;;;;;-0.66;81.66;100134.57;123527;1099;104274;-79
2024/01/14 00:05:11;;;;;;;31.40;14.97;;;;;;;-0.68;81.24;100131.87;123742;1099;104280;-79
2024/01/14 00:07:42;;;;;;;31.10;15.15;;;;;;;-0.68;81.85;100131.87;123463;1099;104226;-79
2024/01/14 00:10:13;;;;;;;31.70;15.17;;;;;;;-0.68;81.46;100129.30;123571;1098;105573;-79
2024/01/14 00:12:44;;;;;;;31.50;14.20;;;;;;;-0.68;81.24;100128.42;123639;1099;104328;-80
2024/01/14 00:15:17;;;;;;;28.57;13.73;;;;;;;-0.70;81.39;100135.11;123311;1098;104274;-79
2024/01/14 00:17:49;;;;;;;33.55;14.85;;;;;;;-0.75;80.73;100133.11;123678;1099;104655;-80
2024/01/14 00:20:20;;;;;;;28.13;13.83;;;;;;;-0.74;81.35;100137.46;123596;1098;104383;-80
2024/01/14 00:22:51;;;;;;;31.07;15.27;;;;;;;-0.75;80.75;100139.92;123529;1098;104224;-80
2024/01/14 00:25:22;;;;;;;30.50;14.43;;;;;;;-0.75;80.84;100130.53;123560;1099;104405;-80
2024/01/14 00:27:53;;;;;;;28.70;14.13;;;;;;;-0.74;81.24;100127.16;123297;1098;104303;-80
2024/01/14 00:30:25;;;;;;;30.07;14.10;;;;;;;-0.74;81.60;100128.84;123496;1099;104294;-80
2024/01/14 00:32:56;;;;;;;34.27;14.47;;;;;;;-0.76;81.27;100122.69;123559;1099;104323;-80
2024/01/14 00:35:27;;;;;;;33.20;14.83;;;;;;;-0.78;80.90;100114.84;123618;1099;104326;-80
2024/01/14 00:37:59;;;;;;;27.70;13.57;;;;;;;-0.82;80.78;100106.77;123563;1099;104770;-80
2024/01/14 00:40:30;;;;;;;30.30;14.50;;;;;;;-0.86;81.05;100110.78;123405;1099;104291;-80
2024/01/14 00:43:02;;;;;;;35.63;16.23;;;;;;;-0.88;80.84;100109.78;123554;1099;104344;-80
2024/01/14 00:45:33;;;;;;;34.73;15.83;;;;;;;-0.89;81.12;100107.09;123602;1098;104245;-80
2024/01/14 00:48:05;;;;;;;35.00;16.80;;;;;;;-0.91;81.05;100104.39;123295;1099;104274;-80
2024/01/14 00:50:36;;;;;;;33.20;17.00;;;;;;;-0.95;80.89;100099.79;123604;1099;104334;-80
2024/01/14 00:53:07;;;;;;;35.83;16.93;;;;;;;-0.96;81.06;100092.86;123655;1099;104303;-79
2024/01/14 00:55:39;;;;;;;38.30;17.90;;;;;;;-0.97;81.09;100085.91;123612;1099;104262;-79
2024/01/14 00:58:11;;;;;;;36.97;17.47;;;;;;;-1.02;81.13;100075.27;123618;1099;104355;-79
2024/01/14 01:00:42;;;;;;;36.27;17.40;;;;;;;-1.05;81.23;100066.42;123577;1099;104341;-79
2024/01/14 01:03:13;;;;;;;54.60;24.23;;;;;;;-1.08;80.89;100072.23;123598;1099;104348;-79
2024/01/14 01:05:44;;;;;;;64.50;27.20;;;;;;;-1.06;81.07;100072.34;123658;1099;104296;-79
2024/01/14 01:08:16;;;;;;;89.23;35.07;;;;;;;-1.03;81.40;100075.15;123689;1099;104617;-79
2024/01/14 01:10:48;;;;;;;100.57;35.97;;;;;;;-1.01;81.25;100071.00;123633;1099;104274;-79
2024/01/14 01:13:19;;;;;;;118.40;44.05;;;;;;;-1.01;81.77;100065.84;123510;1099;104245;-79
2024/01/14 01:15:51;;;;;;;132.17;49.07;;;;;;;-1.03;81.27;100067.42;123336;1099;104293;-80
2024/01/14 01:18:22;;;;;;;121.63;46.73;;;;;;;-1.02;81.57;100069.23;123331;1099;104274;-80
2024/01/14 01:20:56;;;;;;;96.23;37.97;;;;;;;-1.03;80.87;100070.88;123322;1099;104277;-79
2024/01/14 01:23:25;;;;;;;;;;;;;;;-1.05;80.89;100058.70;123518;1098;104357;-80
2024/01/14 01:25:57;;;;;;;61.47;25.07;;;;;;;-1.12;80.90;100059.92;123592;1099;104224;-80
2024/01/14 01:28:28;;;;;;;54.10;22.93;;;;;;;-1.16;80.88;100053.63;123674;1099;104373;-79
2024/01/14 01:30:59;;;;;;;45.20;20.07;;;;;;;-1.17;80.45;100053.52;123512;1099;104274;-79
2024/01/14 01:33:31;;;;;;;50.90;22.40;;;;;;;-1.18;81.10;100068.08;123604;1099;104329;-79
2024/01/14 01:36:02;;;;;;;45.67;20.60;;;;;;;-1.18;81.25;100060.35;123497;1098;104258;-79
2024/01/14 01:38:33;;;;;;;47.87;23.13;;;;;;;-1.16;81.37;100053.63;123551;1099;104249;-79
2024/01/14 01:41:04;;;;;;;49.43;22.60;;;;;;;-1.15;81.18;100045.13;123378;1099;105595;-79
2024/01/14 01:43:35;;;;;;;48.67;22.87;;;;;;;-1.14;81.12;100041.78;123581;1099;104641;-79
2024/01/14 01:46:09;;;;;;;47.00;22.53;;;;;;;-1.15;80.73;100050.28;123615;1099;104275;-80
2024/01/14 01:48:41;;;;;;;41.13;19.25;;;;;;;-1.16;80.70;100037.29;123655;1099;104316;-80
2024/01/14 01:51:13;;;;;;;50.20;22.00;;;;;;;-1.21;80.43;100044.67;123577;1099;104255;-80
2024/01/14 01:53:44;;;;;;;45.67;21.27;;;;;;;-1.24;80.65;100039.29;123213;1099;104373;-80
2024/01/14 01:56:16;;;;;;;47.13;21.83;;;;;;;-1.25;80.40;100039.17;123287;1102;104823;-80
2024/01/14 01:58:47;;;;;;;48.20;22.47;;;;;;;-1.29;80.71;100033.80;123688;1099;104287;-80
2024/01/14 02:01:21;;;;;;;48.33;22.50;;;;;;;-1.30;81.02;100033.69;123552;1099;104627;-80
2024/01/14 02:03:53;;;;;;;46.88;21.90;;;;;;;-1.33;80.12;100030.87;123638;1099;104252;-80
2024/01/14 02:06:25;;;;;;;42.17;20.80;;;;;;;-1.35;81.12;100027.30;123654;1099;104322;-80
2024/01/14 02:08:56;;;;;;;41.60;19.83;;;;;;;-1.37;81.23;100031.41;123713;1099;104360;-80
2024/01/14 02:11:27;;;;;;;42.90;20.93;;;;;;;-1.42;80.61;100027.61;123518;1099;104245;-80
2024/01/14 02:14:00;;;;;;;;;;;;;;;-1.45;80.44;100028.27;123303;1099;104341;-80
2024/01/14 02:16:31;;;;;;;40.70;19.23;;;;;;;-1.49;81.05;100028.83;123514;1099;104290;-80
2024/01/14 02:19:02;;;;;;;45.17;20.47;;;;;;;-1.51;80.04;100027.80;123752;1099;104329;-80
2024/01/14 02:21:37;;;;;;;42.63;19.37;;;;;;;-1.54;80.37;100020.77;123242;1099;104316;-80
2024/01/14 02:24:21;;;;;;;40.00;18.70;;;;;;;-1.57;80.49;100020.53;123687;1099;104261;-79
2024/01/14 02:26:53;;;;;;;41.53;18.97;;;;;;;-1.63;80.56;100012.34;123655;1099;104228;-80
2024/01/14 02:29:27;;;;;;;42.53;18.77;;;;;;;-1.67;80.18;100007.73;123688;1099;104319;-80
2024/01/14 02:31:58;;;;;;;38.30;18.53;;;;;;;-1.70;80.38;100007.50;123565;1099;104747;-80
2024/01/14 02:34:30;;;;;;;37.93;18.53;;;;;;;-1.73;79.68;100002.12;123633;1099;104335;-80
2024/01/14 02:37:01;;;;;;;38.53;18.90;;;;;;;-1.76;80.79;100000.23;123631;1099;104334;-79
2024/01/14 02:39:32;;;;;;;38.90;17.70;;;;;;;-1.80;80.20;99993.05;123603;1099;104226;-80
2024/01/14 02:42:03;;;;;;;39.17;17.90;;;;;;;-1.86;79.70;99988.31;123574;1099;104364;-80
2024/01/14 02:44:35;;;;;;;38.80;17.40;;;;;;;-1.88;80.16;99978.71;123702;1099;104373;-80
2024/01/14 02:47:06;;;;;;;39.03;17.53;;;;;;;-1.89;80.24;99987.20;123490;1099;104278;-80
2024/01/14 02:49:37;;;;;;;39.43;17.77;;;;;;;-1.91;80.25;99988.77;123649;1099;104319;-80
2024/01/14 02:52:08;;;;;;;38.60;17.87;;;;;;;-1.91;80.09;99978.48;123601;1099;104274;-80
2024/01/14 02:54:39;;;;;;;39.77;18.40;;;;;;;-1.95;80.17;99977.33;123245;1099;104361;-81
2024/01/14 02:57:11;;;;;;;41.63;19.27;;;;;;;-1.98;80.71;99961.66;123433;1099;104393;-80
2024/01/14 02:59:42;;;;;;;41.50;18.93;;;;;;;-2.01;79.87;99959.77;123444;1099;104291;-80
2024/01/14 03:02:13;;;;;;;42.30;19.13;;;;;;;-2.05;79.79;99956.84;123312;1099;104284;-81
2024/01/14 03:04:45;;;;;;;43.07;19.10;;;;;;;-2.11;80.11;99966.66;123619;1098;104226;-80
2024/01/14 03:07:16;;;;;;;39.00;19.17;;;;;;;-2.12;79.73;99960.63;123726;1099;104713;-80
2024/01/14 03:09:48;;;;;;;40.67;18.23;;;;;;;-2.12;79.98;99955.49;123826;1099;104236;-80
2024/01/14 03:12:19;;;;;;;38.77;18.30;;;;;;;-2.14;79.67;99953.56;123605;1099;104718;-80
2024/01/14 03:14:50;;;;;;;38.13;18.57;;;;;;;-2.21;80.33;99962.48;123588;1099;104287;-81
2024/01/14 03:17:21;;;;;;;37.87;17.97;;;;;;;-2.26;79.44;99958.64;123312;1099;104322;-81
2024/01/14 03:19:52;;;;;;;37.07;18.60;;;;;;;-2.29;79.57;99961.89;123501;1099;104284;-81
2024/01/14 03:22:26;;;;;;;43.15;18.90;;;;;;;-2.30;80.38;99959.20;123556;1098;104275;-81
2024/01/14 03:24:57;;;;;;;43.10;18.43;;;;;;;-2.32;79.59;99946.23;123627;1099;107557;-80
2024/01/14 03:27:28;;;;;;;38.90;18.47;;;;;;;-2.35;79.91;99939.17;123629;1099;104316;-80
2024/01/14 03:30:00;;;;;;;37.93;17.30;;;;;;;-2.38;80.04;99935.48;123633;1099;104319;-80
2024/01/14 03:32:31;;;;;;;37.10;16.73;;;;;;;-2.43;79.29;99932.55;123710;1099;104233;-81
2024/01/14 03:35:02;;;;;;;39.57;17.73;;;;;;;-2.46;80.10;99939.09;123763;1099;118571;-79
2024/01/14 03:37:34;;;;;;;36.10;16.43;;;;;;;-2.50;79.53;99937.97;123815;1099;104258;-80
2024/01/14 03:40:06;;;;;;;42.80;17.87;;;;;;;-2.50;79.86;99940.55;123701;1099;104243;-81
2024/01/14 03:42:37;;;;;;;36.97;16.47;;;;;;;-2.51;80.49;99938.73;123735;1099;104335;-80
2024/01/14 03:45:09;;;;;;;36.30;17.10;;;;;;;-2.51;79.30;99935.28;123723;1099;104315;-80
2024/01/14 03:47:41;;;;;;;34.23;15.83;;;;;;;-2.56;79.50;99940.95;123657;1099;104169;-80
2024/01/14 03:50:14;;;;;;;37.33;16.93;;;;;;;-2.59;80.32;99929.55;123660;1099;104258;-80
2024/01/14 03:52:45;;;;;;;33.40;16.02;;;;;;;-2.61;79.12;99929.42;123630;1099;104294;-80
2024/01/14 03:55:17;;;;;;;34.10;15.90;;;;;;;-2.61;79.73;99928.54;123615;1099;104654;-80
2024/01/14 03:57:48;;;;;;;40.47;18.37;;;;;;;-2.61;79.19;99933.67;123628;1099;104335;-80
2024/01/14 04:00:20;;;;;;;40.47;17.10;;;;;;;-2.60;80.09;99925.17;123789;1099;104376;-80
2024/01/14 04:02:51;;;;;;;38.17;17.13;;;;;;;-2.58;79.50;99929.66;123648;1099;104290;-80
2024/01/14 04:05:22;;;;;;;38.57;16.60;;;;;;;-2.57;79.38;99920.27;123739;1099;104271;-80
2024/01/14 04:07:54;;;;;;;38.70;17.60;;;;;;;-2.58;79.12;99906.55;123402;1099;104418;-80
2024/01/14 04:10:25;;;;;;;36.30;16.47;;;;;;;-2.59;79.17;99909.00;123710;1099;104281;-80
2024/01/14 04:12:56;;;;;;;41.73;17.87;;;;;;;-2.63;79.34;99910.44;123911;1098;104351;-80
2024/01/14 04:15:27;;;;;;;38.23;16.73;;;;;;;-2.65;79.51;99911.08;123713;1098;104304;-79
2024/01/14 04:17:58;;;;;;;36.40;16.47;;;;;;;-2.63;78.78;99904.41;123492;1101;104635;-81
2024/01/14 04:20:29;;;;;;;34.33;15.47;;;;;;;-2.65;79.00;99901.73;123718;1099;104347;-80
2024/01/14 04:23:00;;;;;;;35.03;15.03;;;;;;;-2.67;80.07;99894.66;123683;1099;104284;-81
2024/01/14 04:25:32;;;;;;;35.50;15.40;;;;;;;-2.67;78.93;99892.09;123698;1098;104259;-81
2024/01/14 04:28:03;;;;;;;33.80;14.85;;;;;;;-2.63;80.11;99889.00;123908;1099;104323;-80
2024/01/14 04:30:35;;;;;;;37.17;16.70;;;;;;;-2.60;79.44;99881.50;123832;1099;104380;-80
2024/01/14 04:33:06;;;;;;;34.67;15.67;;;;;;;-2.58;79.29;99878.28;123823;1099;104265;-81
2024/01/14 04:35:37;;;;;;;37.87;15.10;;;;;;;-2.58;79.58;99878.28;123849;1099;104267;-80
2024/01/14 04:38:09;;;;;;;34.83;15.03;;;;;;;-2.55;79.31;99877.64;123664;1098;104648;-80
2024/01/14 04:40:40;;;;;;;35.17;14.90;;;;;;;-2.55;78.82;99885.34;123858;1099;104271;-81
2024/01/14 04:43:12;;;;;;;31.63;13.87;;;;;;;-2.54;79.16;99885.47;123456;1099;104305;-81
2024/01/14 04:45:43;;;;;;;34.70;15.00;;;;;;;-2.50;79.57;99875.43;123670;1099;104319;-80
2024/01/14 04:48:14;;;;;;;32.67;14.23;;;;;;;-2.45;79.49;99868.96;124162;1099;104250;-80
2024/01/14 04:50:45;;;;;;;33.60;14.97;;;;;;;-2.41;79.18;99865.86;123723;1099;104350;-81
2024/01/14 04:53:16;;;;;;;37.10;15.80;;;;;;;-2.40;79.42;99865.06;123693;1099;104331;-80
2024/01/14 04:55:48;;;;;;;32.17;13.47;;;;;;;-2.45;79.04;99861.25;123716;1099;104399;-80
2024/01/14 04:58:19;;;;;;;33.80;14.23;;;;;;;-2.54;78.74;99872.63;123815;1098;104293;-80
2024/01/14 05:00:51;;;;;;;34.40;14.80;;;;;;;-2.58;79.13;99860.30;124021;1099;104380;-81
2024/01/14 05:03:22;;;;;;;34.50;15.10;;;;;;;-2.64;78.81;99857.27;123603;1099;104309;-80
2024/01/14 05:05:54;;;;;;;32.43;14.03;;;;;;;-2.67;78.58;99856.14;123659;1099;104335;-80
2024/01/14 05:08:25;;;;;;;33.90;14.87;;;;;;;-2.76;78.50;99857.23;123765;1099;104347;-80
2024/01/14 05:10:56;;;;;;;33.70;14.90;;;;;;;-2.79;79.40;99853.50;123643;1099;104373;-80
2024/01/14 05:13:27;;;;;;;30.57;13.30;;;;;;;-2.86;79.15;99853.82;123671;1099;104220;-80
2024/01/14 05:15:58;;;;;;;32.80;13.77;;;;;;;-2.91;78.37;99856.91;123347;1099;104485;-80
2024/01/14 05:18:30;;;;;;;37.13;14.60;;;;;;;-2.95;78.31;99859.11;123911;1099;104258;-81
2024/01/14 05:21:02;;;;;;;35.33;15.90;;;;;;;-2.96;78.31;99844.47;123798;1099;104287;-80
2024/01/14 05:23:33;;;;;;;39.53;16.03;;;;;;;-3.00;77.76;99845.03;123775;1098;104264;-81
2024/01/14 05:26:06;;;;;;;37.60;18.30;;;;;;;-3.08;78.08;99839.30;123849;1099;104297;-81
2024/01/14 05:28:38;;;;;;;41.80;18.63;;;;;;;-3.12;78.64;99834.68;123786;1099;104242;-80
2024/01/14 05:31:09;;;;;;;44.00;18.63;;;;;;;-3.16;78.03;99835.23;123738;1099;104374;-81
2024/01/14 05:33:40;;;;;;;38.95;16.20;;;;;;;-3.21;77.93;99826.25;123759;1099;104312;-81
2024/01/14 05:36:11;;;;;;;41.83;18.37;;;;;;;-3.27;78.69;99825.00;123454;1099;104300;-80
2024/01/14 05:38:44;;;;;;;41.53;19.03;;;;;;;-3.30;78.83;99822.19;123518;1100;104258;-81
2024/01/14 05:41:16;;;;;;;40.60;18.57;;;;;;;-3.31;77.89;99828.09;123445;1099;104220;-81
2024/01/14 05:43:47;;;;;;;39.27;17.80;;;;;;;-3.31;79.08;99824.63;123342;1099;104421;-80
2024/01/14 05:46:18;;;;;;;39.25;17.00;;;;;;;-3.31;78.93;99817.82;123619;1099;104172;-81
2024/01/14 05:48:49;;;;;;;41.43;17.77;;;;;;;-3.34;78.90;99819.27;123822;1099;104238;-80
2024/01/14 05:51:20;;;;;;;40.50;18.35;;;;;;;-3.35;78.78;99813.25;123815;1099;104239;-80
2024/01/14 05:53:52;;;;;;;42.40;18.00;;;;;;;-3.37;78.50;99812.20;123868;1099;104463;-80
2024/01/14 05:56:30;;;;;;;41.70;18.07;;;;;;;-3.38;78.27;99812.08;123778;1099;104272;-79
2024/01/14 05:59:01;;;;;;;37.27;16.90;;;;;;;-3.37;78.65;99799.38;123510;1100;104313;-80
2024/01/14 06:01:32;;;;;;;41.47;17.13;;;;;;;-3.41;78.28;99799.93;123480;1099;104255;-80
2024/01/14 06:04:04;;;;;;;40.37;16.77;;;;;;;-3.40;78.40;99799.13;123488;1099;104367;-80
2024/01/14 06:06:35;;;;;;;40.90;17.63;;;;;;;-3.36;78.52;99798.61;123763;1099;104236;-80
2024/01/14 06:09:06;;;;;;;38.17;17.40;;;;;;;-3.33;78.34;99793.72;123803;1099;104341;-80
2024/01/14 06:11:40;;;;;;;39.57;17.47;;;;;;;-3.30;78.14;99795.65;123989;1099;104345;-80
2024/01/14 06:14:11;;;;;;;31.75;14.73;;;;;;;-3.36;78.08;99793.48;123778;1099;104248;-81
2024/01/14 06:16:42;;;;;;;40.55;18.05;;;;;;;-3.34;78.14;99791.04;123822;1099;104236;-81
2024/01/14 06:19:13;;;;;;;39.83;17.30;;;;;;;-3.28;78.84;99792.41;123846;1098;104393;-81
2024/01/14 06:21:45;;;;;;;39.67;16.10;;;;;;;-3.22;78.35;99785.99;123755;1099;104220;-81
2024/01/14 06:24:16;;;;;;;38.43;17.40;;;;;;;-3.19;78.82;99787.12;123795;1099;104239;-80
2024/01/14 06:26:47;;;;;;;42.07;17.77;;;;;;;-3.09;78.31;99781.02;124111;1098;104249;-81
2024/01/14 06:29:19;;;;;;;38.43;17.20;;;;;;;-3.05;77.77;99780.50;123918;1099;104283;-80
2024/01/14 06:31:50;;;;;;;36.87;16.70;;;;;;;-2.96;78.18;99772.59;124120;1099;104294;-81
2024/01/14 06:34:21;;;;;;;40.20;17.10;;;;;;;-2.86;78.71;99780.24;123914;1099;104229;-81
2024/01/14 06:36:52;;;;;;;38.30;17.07;;;;;;;-2.76;78.58;99777.61;123583;1100;104255;-80
2024/01/14 06:39:23;;;;;;;38.73;17.90;;;;;;;-2.63;78.67;99775.98;124046;1099;104335;-80
2024/01/14 06:41:55;;;;;;;37.30;17.35;;;;;;;-2.56;78.10;99773.97;123935;1099;104166;-80
2024/01/14 06:44:26;;;;;;;41.50;17.33;;;;;;;-2.51;78.45;99776.00;123794;1099;104650;-80
2024/01/14 06:46:57;;;;;;;41.63;18.13;;;;;;;-2.51;78.02;99783.70;123870;1099;104243;-81
2024/01/14 06:49:29;;;;;;;42.77;18.60;;;;;;;-2.50;78.39;99778.69;123933;1098;104415;-81
2024/01/14 06:52:00;;;;;;;40.40;16.90;;;;;;;-2.49;77.83;99779.57;123751;1098;104246;-81
2024/01/14 06:54:31;;;;;;;40.20;18.10;;;;;;;-2.49;78.83;99784.70;123441;1099;104312;-81
2024/01/14 06:57:02;;;;;;;40.37;17.47;;;;;;;-2.42;78.42;99784.41;123431;1102;104364;-80
2024/01/14 06:59:34;;;;;;;41.27;17.27;;;;;;;-2.30;79.05;99781.88;123523;1099;104351;-81
2024/01/14 07:02:05;;;;;;;39.87;18.10;;;;;;;-2.16;79.12;99781.22;123406;1102;104361;-80
2024/01/14 07:04:36;;;;;;;41.83;18.07;;;;;;;-2.03;78.57;99778.76;123447;1099;104275;-81
2024/01/14 07:07:09;;;;;;;37.07;16.80;;;;;;;-1.92;78.47;99776.98;123511;1098;104249;-81
2024/01/14 07:09:40;;;;;;;38.37;16.57;;;;;;;-1.82;77.93;99776.88;123801;1098;104917;-81
2024/01/14 07:12:11;;;;;;;37.60;16.17;;;;;;;-1.72;78.56;99769.84;123647;1099;104428;-81
2024/01/14 07:14:42;;;;;;;40.37;16.73;;;;;;;-1.62;78.29;99769.73;123692;1099;104268;-81
2024/01/14 07:17:13;;;;;;;36.33;14.93;;;;;;;-1.59;78.04;99772.52;123316;1102;104332;-81
2024/01/14 07:19:44;;;;;;;32.07;14.03;;;;;;;-1.50;79.25;99765.44;123622;1099;104315;-80
2024/01/14 07:22:16;;;;;;;34.87;15.27;;;;;;;-1.39;78.20;99770.47;123769;1098;104286;-80
2024/01/14 07:24:47;;;;;;;33.93;15.30;;;;;;;-1.38;78.54;99761.97;123569;1099;104386;-80
2024/01/14 07:27:18;;;;;;;38.27;15.77;;;;;;;-1.35;78.40;99769.91;123721;1099;104255;-80
2024/01/14 07:29:49;;;;;;;36.77;15.53;;;;;;;-1.28;78.52;99764.39;123675;1099;104270;-81
2024/01/14 07:32:20;;;;;;;34.27;15.40;;;;;;;-1.27;77.62;99767.07;123661;1099;104271;-81
2024/01/14 07:34:51;;;;;;;35.67;15.07;;;;;;;-1.35;77.22;99772.48;123359;1098;104389;-80
2024/01/14 07:37:23;;;;;;;39.07;16.47;;;;;;;-1.37;78.03;99767.23;123613;1099;104306;-80
2024/01/14 07:39:54;;;;;;;50.53;22.17;;;;;;;-1.29;78.25;99758.36;123186;1099;104274;-80
2024/01/14 07:42:25;;;;;;;51.07;24.40;;;;;;;-1.18;77.98;99751.39;123310;1098;104351;-80
2024/01/14 07:44:57;;;;;;;54.73;23.80;;;;;;;-1.10;78.17;99750.23;123403;1099;104331;-80
2024/01/14 07:47:29;;;;;;;53.63;23.23;;;;;;;-1.01;77.98;99752.57;123263;1099;104296;-80
2024/01/14 07:50:00;;;;;;;49.77;22.37;;;;;;;-0.91;78.09;99741.22;123576;1099;104245;-80
2024/01/14 07:52:32;;;;;;;38.77;18.57;;;;;;;-0.81;78.16;99748.80;123592;1099;104281;-79
2024/01/14 07:55:03;;;;;;;40.73;18.07;;;;;;;-0.76;77.31;99744.84;123222;1099;104329;-79
2024/01/14 07:57:35;;;;;;;34.03;15.83;;;;;;;-0.72;77.64;99738.21;123620;1099;104677;-79
2024/01/14 08:00:10;;;;;;;35.15;16.40;;;;;;;-0.63;77.57;99743.98;123699;1099;104293;-79
2024/01/14 08:02:44;;;;;;;34.70;15.35;;;;;;;-0.56;77.48;99730.73;123470;1099;104281;-80
2024/01/14 08:05:16;;;;;;;35.77;14.93;;;;;;;-0.53;77.09;99734.30;123479;1099;104386;-80
2024/01/14 08:07:47;;;;;;;39.90;18.87;;;;;;;-0.45;76.75;99733.13;123749;1099;104350;-80
2024/01/14 08:10:18;;;;;;;43.70;20.05;;;;;;;-0.40;76.04;99727.50;123626;1099;104271;-80
2024/01/14 08:12:49;;;;;;;44.50;20.43;;;;;;;-0.38;75.86;99722.45;123560;1099;104797;-79
2024/01/14 08:15:20;;;;;;;43.53;21.23;;;;;;;-0.33;76.79;99721.05;123632;1099;104393;-80
2024/01/14 08:17:51;;;;;;;41.97;19.03;;;;;;;-0.27;75.73;99718.00;123346;1098;104326;-79
2024/01/14 08:20:25;;;;;;;40.17;18.87;;;;;;;-0.41;74.30;99717.09;123504;1099;104297;-80
2024/01/14 08:22:56;;;;;;;44.45;18.85;;;;;;;-0.34;76.52;99708.06;123614;1098;104629;-79
2024/01/14 08:25:28;;;;;;;40.93;19.43;;;;;;;-0.24;76.56;99716.51;123544;1099;104354;-79
2024/01/14 08:27:59;;;;;;;40.17;18.93;;;;;;;-0.12;76.62;99712.97;123368;1099;104261;-80
2024/01/14 08:30:30;;;;;;;34.20;16.23;;;;;;;-0.07;76.76;99715.03;123445;1099;104347;-78
2024/01/14 08:33:02;;;;;;;33.20;15.40;;;;;;;-0.02;76.21;99718.83;123504;1099;104680;-80
2024/01/14 08:35:33;;;;;;;36.30;15.60;;;;;;;0.07;76.56;99720.22;123506;1098;104386;-79
2024/01/14 08:38:05;;;;;;;33.17;14.67;;;;;;;0.16;76.62;99710.48;123624;1099;104664;-80
2024/01/14 08:40:36;;;;;;;33.50;15.43;;;;;;;0.12;76.14;99713.66;123484;1099;104277;-79
2024/01/14 08:43:07;;;;;;;32.17;14.10;;;;;;;0.08;76.35;99707.41;123545;1099;104268;-80
2024/01/14 08:45:39;;;;;;;31.10;15.60;;;;;;;0.01;75.87;99706.92;123129;1099;104229;-79
2024/01/14 08:48:13;;;;;;;32.53;15.07;;;;;;;0.11;76.71;99711.86;123515;1099;104332;-80
2024/01/14 08:50:44;;;;;;;33.42;14.70;;;;;;;0.25;76.25;99712.74;123473;1098;104351;-79
2024/01/14 08:53:15;;;;;;;31.97;14.47;;;;;;;0.26;76.04;99709.38;123484;1099;104734;-79
2024/01/14 08:55:46;;;;;;;34.47;15.13;;;;;;;0.27;75.94;99704.31;123263;1099;104334;-79
2024/01/14 08:58:17;;;;;;;33.20;15.57;;;;;;;0.29;75.81;99696.67;123478;1099;104271;-79
2024/01/14 09:00:49;;;;;;;31.30;15.17;;;;;;;0.30;75.51;99691.61;123488;1099;104232;-79
2024/01/14 09:03:20;;;;;;;32.60;15.10;;;;;;;0.31;75.71;99688.24;123591;1099;104412;-79
2024/01/14 09:05:51;;;;;;;32.53;15.17;;;;;;;0.37;75.51;99686.84;123515;1099;104307;-79
2024/01/14 09:08:23;;;;;;;32.40;16.23;;;;;;;0.43;75.68;99685.52;123560;1099;104254;-79
2024/01/14 09:10:56;;;;;;;31.73;15.20;;;;;;;0.44;75.44;99673.53;123652;1099;104383;-79
2024/01/14 09:13:27;;;;;;;33.97;15.17;;;;;;;0.51;75.63;99673.09;123577;1099;104178;-78
2024/01/14 09:15:58;;;;;;;32.27;13.97;;;;;;;0.58;75.61;99654.62;123594;1099;104821;-80
2024/01/14 09:18:29;;;;;;;32.73;15.63;;;;;;;0.46;74.46;99656.44;123387;1099;104303;-80
2024/01/14 09:21:01;;;;;;;32.35;16.00;;;;;;;0.36;74.65;99652.41;123291;1099;104430;-80
2024/01/14 09:23:32;;;;;;;32.50;15.00;;;;;;;0.34;74.75;99641.98;123546;1099;104376;-79
2024/01/14 09:26:03;;;;;;;34.77;15.70;;;;;;;0.35;75.32;99645.45;123213;1102;104351;-80
2024/01/14 09:28:36;;;;;;;33.37;16.17;;;;;;;0.29;74.80;99642.48;123610;1099;104318;-80
2024/01/14 09:31:07;;;;;;;40.80;16.67;;;;;;;0.24;75.28;99637.03;123493;1099;104246;-80
2024/01/14 09:33:38;;;;;;;33.27;16.27;;;;;;;0.23;75.01;99635.23;123743;1099;104724;-80
2024/01/14 09:36:11;;;;;;;34.83;16.73;;;;;;;0.15;74.87;99628.71;123548;1099;104309;-80
2024/01/14 09:38:42;;;;;;;36.67;15.73;;;;;;;0.02;74.38;99624.47;123826;1099;104562;-80
2024/01/14 09:41:22;;;;;;;36.10;16.80;;;;;;;-0.09;74.37;99634.11;123541;1099;104380;-79
2024/01/14 09:43:54;;;;;;;35.43;16.47;;;;;;;-0.15;74.73;99627.67;123580;1099;104364;-79
2024/01/14 09:46:25;;;;;;;34.47;15.80;;;;;;;-0.24;73.86;99620.23;123720;1099;104363;-80
2024/01/14 09:48:57;;;;;;;39.17;17.63;;;;;;;-0.33;74.26;99633.41;123471;1099;104261;-80
2024/01/14 09:51:30;;;;;;;37.07;17.43;;;;;;;-0.32;74.60;99630.05;123313;1099;104363;-80
2024/01/14 09:54:03;;;;;;;38.95;16.93;;;;;;;-0.35;74.22;99628.96;123778;1099;104242;-80
2024/01/14 09:56:35;;;;;;;38.20;16.43;;;;;;;-0.40;74.17;99624.39;123694;1098;104348;-79
2024/01/14 09:59:08;;;;;;;36.07;16.60;;;;;;;-0.42;73.80;99619.91;123279;1099;104310;-80
2024/01/14 10:01:40;;;;;;;37.27;16.63;;;;;;;-0.48;73.34;99622.09;123281;1098;104351;-79
2024/01/14 10:04:12;;;;;;;34.77;16.27;;;;;;;-0.44;74.33;99624.09;123662;1098;104272;-80
2024/01/14 10:06:44;;;;;;;36.47;16.50;;;;;;;-0.39;74.45;99617.54;123617;1099;104322;-79
2024/01/14 10:09:16;;;;;;;38.33;17.60;;;;;;;-0.35;73.80;99614.38;123701;1098;104351;-80
2024/01/14 10:11:48;;;;;;;38.27;17.87;;;;;;;-0.24;73.85;99617.64;123440;1099;104696;-80
2024/01/14 10:14:25;;;;;;;36.57;17.00;;;;;;;-0.18;74.48;99615.47;123820;1099;104288;-80
2024/01/14 10:16:57;;;;;;;37.60;17.50;;;;;;;-0.14;73.88;99604.56;123713;1099;104347;-79
2024/01/14 10:19:28;;;;;;;36.97;16.90;;;;;;;-0.10;73.89;99585.89;123864;1099;104239;-79
2024/01/14 10:22:00;;;;;;;35.33;16.17;;;;;;;-0.01;74.07;99578.73;123347;1099;104322;-80
2024/01/14 10:24:33;;;;;;;41.35;18.25;;;;;;;0.07;73.82;99576.63;123824;1098;104274;-80
2024/01/14 10:27:05;;;;;;;37.30;17.50;;;;;;;0.15;73.85;99585.73;123600;1099;104270;-80
2024/01/14 10:29:37;;;;;;;40.07;18.40;;;;;;;0.27;74.27;99595.06;123651;1099;104303;-79
2024/01/14 10:32:08;;;;;;;40.87;19.40;;;;;;;0.38;73.65;99590.56;123596;1099;104348;-80
2024/01/14 10:34:40;;;;;;;41.83;19.00;;;;;;;0.53;74.06;99570.81;123531;1098;104441;-79
2024/01/14 10:37:11;;;;;;;42.75;19.35;;;;;;;0.70;74.04;99577.00;123243;1099;104261;-80
2024/01/14 10:39:44;;;;;;;41.93;19.07;;;;;;;0.91;74.05;99567.06;123602;1099;104381;-80
2024/01/14 10:42:15;;;;;;;41.20;18.53;;;;;;;1.07;73.58;99563.68;123586;1099;104271;-81
2024/01/14 10:44:47;;;;;;;39.83;18.80;;;;;;;1.19;73.89;99558.34;123351;1099;104361;-80
2024/01/14 10:47:20;;;;;;;41.37;20.07;;;;;;;1.27;73.66;99553.63;123402;1099;104357;-80
2024/01/14 10:49:53;;;;;;;41.40;19.53;;;;;;;1.32;73.32;99547.89;123296;1099;104345;-81
2024/01/14 10:52:27;;;;;;;38.47;19.27;;;;;;;1.43;73.59;99541.66;123810;1099;104239;-80
2024/01/14 10:55:08;;;;;;;38.60;18.33;;;;;;;1.59;73.79;99534.73;123707;1099;104376;-80
2024/01/14 10:57:45;;;;;;;37.28;18.27;;;;;;;1.70;73.51;99532.75;123818;1099;104176;-80
2024/01/14 11:00:19;;;;;;;36.80;18.13;;;;;;;1.77;73.47;99529.70;123628;1099;104395;-80
2024/01/14 11:02:51;;;;;;;39.70;18.62;;;;;;;1.77;73.33;99530.58;123598;1099;104702;-79
2024/01/14 11:05:23;;;;;;;36.37;18.00;;;;;;;1.80;72.96;99527.28;123705;1099;104479;-79
2024/01/14 11:07:56;;;;;;;39.53;18.37;;;;;;;1.78;73.61;99524.61;123485;1099;104254;-79
2024/01/14 11:10:28;;;;;;;41.43;19.53;;;;;;;1.84;73.35;99520.57;123488;1099;104296;-79
2024/01/14 11:13:09;;;;;;;37.77;17.77;;;;;;;1.79;72.72;99513.47;123650;1099;104348;-79
2024/01/14 11:15:49;;;;;;;41.30;19.30;;;;;;;1.71;72.64;99509.55;123754;1099;104347;-80
2024/01/14 11:18:25;;;;;;;41.67;19.83;;;;;;;1.77;73.07;99502.12;123433;1099;104290;-79
2024/01/14 11:21:07;;;;;;;39.30;19.40;;;;;;;1.85;72.86;99491.32;123636;1099;104268;-79